Aeroporto :
LOGIN :

Iscrizione | Disclaimer

   EN    FR    IT 

 










Sommario :    VFR   VFR Marginale   IFR   IFR Intensivo   IFR Molto Intensivo
Visibilità : 
Base nubi : 
>= 8 km
>= 3000ft
5 / 8 km
1000 / 3000 ft
1500m / 5 km
500 / 1000 ft
800 / 1500m
200 / 500 ft
< 800m
< 200 ft
Simboli :   Temporali  Nebbia  Neve Forte  Precipitazioni Forti  Vento > 20 kt
SIGMETs :   Varie  Temporali  Ghiacco  Turbolenza  Onda orograficha  Ceneri Vulcaniche






- Altitudine del aeroporto : 19 ft
- Codice IATA : DJE


DTTJ - Djerba Zarzis

ULTIMO METAR :
  • 071330Z 05010KT 010V090 9999 FEW020 19/11 Q1024 NOSIG

METARs OBSOLETI :
  • 071300Z 05010KT 020V090 9999 FEW020 19/10 Q1024 NOSIG
  • 071230Z 05009KT 010V080 9999 FEW020 19/11 Q1024 NOSIG
  • 071200Z 05010KT 9999 FEW020 19/11 Q1025 NOSIG
  • 071130Z 04010KT 020V080 9999 FEW020 19/12 Q1025 NOSIG
  • 071100Z 05010KT 360V110 9999 FEW020 19/11 Q1025 NOSIG

TAF TAF DTTJ
Valido dal 07 a 12 ore il 08 a 12 ore UTC


071100Z 0712/0812 06008KT 9999 FEW020
BECMG 0719/0721 12012KT



MetMap, La meteo Aeronautica in un colpo d'occhio ! - Copyright ORBIFLY Dicembre 2007 - Disclaimer

ORBIFLY MET'MAP TEAM :

Programmazione e sviluppo : Alexandra Zaïnal
Concezione : Baudouin d'Aumeries
Aiuto per la programmazione : Marc-Olivier Méhu
Supporto tecnico e logistico : Manuel Goepfert
Aiuto per la traduzione : Arnaldo La Scala

Contatto : metmap@orbifly.com




FONTI E CREDITI :

   NOAA